Time;durP1;ratioP1;P1;durP2;ratioP2;P2;SDS_P1;SDS_P2;PMS_P1;PMS_P2;Temp;Humidity;BMP_temperature;BMP_pressure;BME280_temperature;BME280_humidity;BME280_pressure;Samples;Min_cycle;Max_cycle;Signal;HPM_P1;HPM_P2
2022/09/13 00:01:23;;;;;;;2.37;1.63;;;17.70;92.10;;;;;;7379866;19;20435;-46
2022/09/13 00:03:53;;;;;;;1.77;1.47;;;17.80;91.70;;;;;;7388360;19;20405;-46
2022/09/13 00:06:24;;;;;;;3.10;1.93;;;17.90;91.60;;;;;;7387388;19;20383;-46
2022/09/13 00:08:54;;;;;;;2.50;1.93;;;17.80;92.00;;;;;;7378236;19;21295;-46
2022/09/13 00:11:27;;;;;;;2.00;1.70;;;17.70;92.70;;;;;;7386273;19;20372;-46
2022/09/13 00:13:58;;;;;;;1.70;1.60;;;17.80;92.20;;;;;;7383745;19;20441;-47
2022/09/13 00:16:31;;;;;;;2.50;1.60;;;17.70;92.90;;;;;;7375525;19;20421;-46
2022/09/13 00:19:01;;;;;;;2.17;1.77;;;17.50;93.60;;;;;;7387305;19;20376;-47
2022/09/13 00:21:31;;;;;;;2.20;2.00;;;17.60;93.40;;;;;;7384897;19;20358;-46
2022/09/13 00:24:00;;;;;;;1.87;1.60;;;17.70;92.80;;;;;;7382681;19;20364;-46
2022/09/13 00:26:30;;;;;;;2.10;1.90;;;17.50;93.20;;;;;;7381955;19;20372;-46
2022/09/13 00:29:01;;;;;;;3.30;1.87;;;17.70;93.10;;;;;;7386121;19;21076;-46
2022/09/13 00:31:33;;;;;;;1.90;1.77;;;17.80;92.00;;;;;;7384078;19;20375;-47
2022/09/13 00:34:02;;;;;;;2.10;1.67;;;17.90;91.80;;;;;;7383976;19;20384;-46
2022/09/13 00:36:32;;;;;;;2.07;1.80;;;17.80;92.40;;;;;;7381499;19;20405;-46
2022/09/13 00:39:01;;;;;;;3.70;2.20;;;17.70;92.50;;;;;;7378245;19;20455;-46
2022/09/13 00:41:33;;;;;;;2.87;1.63;;;17.70;92.60;;;;;;7384777;19;20412;-46
2022/09/13 00:44:05;;;;;;;3.30;1.80;;;17.60;93.50;;;;;;7379118;19;20448;-46
2022/09/13 00:46:45;;;;;;;3.10;1.90;;;17.60;93.50;;;;;;7385313;19;20405;-46
2022/09/13 00:49:19;;;;;;;2.50;1.70;;;17.20;95.60;;;;;;7383016;19;20475;-45
2022/09/13 00:51:54;;;;;;;2.80;1.80;;;17.20;96.50;;;;;;7382267;19;20383;-46
2022/09/13 00:54:31;;;;;;;3.70;2.20;;;17.10;97.00;;;;;;7381294;19;20704;-46
2022/09/13 00:57:04;;;;;;;2.07;1.70;;;17.10;97.90;;;;;;7380157;19;20380;-46
2022/09/13 00:59:38;;;;;;;2.90;1.60;;;16.80;99.40;;;;;;7385915;19;20417;-45
2022/09/13 01:02:11;;;;;;;2.73;1.60;;;16.60;99.90;;;;;;7381168;19;20782;-45
2022/09/13 01:04:41;;;;;;;6.27;2.23;;;16.70;99.90;;;;;;7380631;19;20399;-46
2022/09/13 01:07:14;;;;;;;2.00;1.83;;;16.70;99.90;;;;;;7382088;19;20974;-46
2022/09/13 01:09:46;;;;;;;2.97;1.97;;;16.70;99.90;;;;;;7375666;19;20403;-46
2022/09/13 01:12:24;;;;;;;2.70;1.80;;;16.60;99.90;;;;;;7376175;19;20395;-47
2022/09/13 01:14:54;;;;;;;1.87;1.50;;;16.80;99.90;;;;;;7384371;19;20969;-47
2022/09/13 01:17:29;;;;;;;4.33;3.90;;;17.00;99.90;;;;;;7379741;19;21109;-46
2022/09/13 01:19:59;;;;;;;1.97;1.60;;;17.10;99.90;;;;;;7383903;19;20383;-46
2022/09/13 01:22:56;;;;;;;2.13;1.90;;;17.00;99.90;;;;;;7378226;19;20964;-46
2022/09/13 01:26:14;;;;;;;1.83;1.30;;;16.60;99.90;;;;;;7382597;19;20966;-46
2022/09/13 01:29:11;;;;;;;2.27;2.07;;;16.70;99.90;;;;;;7381854;19;20455;-46
2022/09/13 01:31:53;;;;;;;4.53;2.37;;;16.40;99.90;;;;;;7384533;19;20712;-46
2022/09/13 01:34:36;;;;;;;2.63;2.10;;;16.70;99.90;;;;;;7381091;19;20729;-46
2022/09/13 01:37:29;;;;;;;1.80;1.57;;;16.80;99.90;;;;;;7378849;19;20384;-47
2022/09/13 01:40:07;;;;;;;1.70;1.60;;;16.70;99.90;;;;;;7385097;19;20384;-45
2022/09/13 01:42:50;;;;;;;2.47;1.70;;;16.50;99.90;;;;;;7381887;19;20379;-46
2022/09/13 01:45:26;;;;;;;2.37;2.03;;;16.40;99.90;;;;;;7380829;19;20368;-46
2022/09/13 01:48:04;;;;;;;2.40;1.60;;;16.20;99.90;;;;;;7384361;19;20468;-47
2022/09/13 01:50:41;;;;;;;1.77;1.67;;;16.20;99.90;;;;;;7385847;19;20368;-45
2022/09/13 01:53:22;;;;;;;4.80;2.27;;;16.00;99.90;;;;;;7379380;19;20952;-45
2022/09/13 01:55:56;;;;;;;3.27;1.70;;;16.00;99.90;;;;;;7371564;19;20380;-45
2022/09/13 01:58:31;;;;;;;2.10;1.53;;;16.10;99.90;;;;;;7380566;19;20412;-45
2022/09/13 02:01:08;;;;;;;2.47;1.90;;;16.40;99.90;;;;;;7377174;19;20443;-45
2022/09/13 02:03:47;;;;;;;3.43;1.57;;;16.70;99.90;;;;;;7381318;19;20732;-45
2022/09/13 02:06:21;;;;;;;2.00;1.50;;;16.70;99.90;;;;;;7376750;19;20372;-45
2022/09/13 02:08:54;;;;;;;3.83;1.50;;;16.70;99.90;;;;;;7376677;19;20966;-45
2022/09/13 02:11:24;;;;;;;4.07;1.67;;;16.60;99.90;;;;;;7381002;19;20460;-46
2022/09/13 02:13:59;;;;;;;1.87;1.30;;;16.60;99.90;;;;;;7381572;19;20392;-46
2022/09/13 02:16:32;;;;;;;1.50;1.40;;;16.60;99.90;;;;;;7378649;19;20492;-46
2022/09/13 02:19:09;;;;;;;1.70;1.50;;;16.50;99.90;;;;;;7383225;19;20450;-46
2022/09/13 02:21:43;;;;;;;4.87;1.90;;;16.50;99.90;;;;;;7381163;19;20889;-47
2022/09/13 02:24:17;;;;;;;2.93;1.80;;;16.40;99.90;;;;;;7378712;19;20388;-47
2022/09/13 02:26:49;;;;;;;2.00;1.90;;;16.40;99.90;;;;;;7380599;19;20799;-47
2022/09/13 02:29:23;;;;;;;2.30;1.60;;;16.30;99.90;;;;;;7380260;19;20767;-46
2022/09/13 02:31:59;;;;;;;1.40;1.30;;;16.40;99.90;;;;;;7379101;19;20395;-47
2022/09/13 02:34:36;;;;;;;1.67;1.57;;;16.60;99.90;;;;;;7381257;19;20448;-47
2022/09/13 02:37:07;;;;;;;2.30;1.60;;;16.60;99.90;;;;;;7380618;19;20364;-47
2022/09/13 02:39:41;;;;;;;3.90;2.37;;;16.40;99.90;;;;;;7384853;19;20380;-47
2022/09/13 02:42:17;;;;;;;2.27;2.07;;;16.50;99.90;;;;;;7382876;19;20372;-46
2022/09/13 02:44:49;;;;;;;4.73;1.90;;;16.50;99.90;;;;;;7379163;19;20725;-48
2022/09/13 02:47:35;;;;;;;5.77;1.80;;;16.60;99.90;;;;;;7382959;19;20376;-46
2022/09/13 02:50:23;;;;;;;2.40;1.70;;;16.80;99.90;;;;;;7382026;19;20424;-45
2022/09/13 02:53:04;;;;;;;2.10;1.90;;;16.90;99.90;;;;;;7376671;19;20472;-45
2022/09/13 02:55:41;;;;;;;2.27;2.03;;;17.00;99.90;;;;;;7381117;19;20363;-45
2022/09/13 02:58:16;;;;;;;2.00;1.63;;;17.00;99.90;;;;;;7364056;19;20823;-47
2022/09/13 03:00:46;;;;;;;2.90;1.70;;;17.00;99.90;;;;;;7373789;19;20437;-47
2022/09/13 03:03:19;;;;;;;2.60;2.17;;;17.00;99.90;;;;;;7377077;19;20405;-45
2022/09/13 03:05:52;;;;;;;2.30;1.80;;;17.10;99.90;;;;;;7372990;19;20951;-45
2022/09/13 03:08:23;;;;;;;2.40;1.83;;;17.00;99.90;;;;;;7370961;19;20455;-45
2022/09/13 03:11:05;;;;;;;6.70;2.07;;;17.00;99.90;;;;;;7374702;19;20368;-45
2022/09/13 03:13:51;;;;;;;2.03;1.87;;;17.10;99.90;;;;;;7374419;19;20381;-45
2022/09/13 03:16:38;;;;;;;2.60;1.60;;;17.10;99.90;;;;;;7374264;19;20918;-45
2022/09/13 03:19:27;;;;;;;3.13;2.10;;;17.20;99.90;;;;;;7375770;19;20380;-45
2022/09/13 03:22:29;;;;;;;2.83;1.93;;;17.30;99.90;;;;;;7376467;19;20439;-45
2022/09/13 03:25:07;;;;;;;1.40;1.30;;;17.30;99.90;;;;;;7380197;19;20509;-45
2022/09/13 03:27:44;;;;;;;3.40;2.23;;;17.30;99.90;;;;;;7375100;19;20420;-45
2022/09/13 03:30:16;;;;;;;2.43;1.90;;;17.40;99.90;;;;;;7382451;19;20378;-45
2022/09/13 03:32:52;;;;;;;4.70;2.20;;;17.40;99.90;;;;;;7378111;19;20377;-47
2022/09/13 03:35:31;;;;;;;4.10;1.90;;;17.40;99.90;;;;;;7381215;19;20379;-45
2022/09/13 03:38:08;;;;;;;3.03;1.70;;;17.40;99.90;;;;;;7368885;19;20906;-45
2022/09/13 03:40:44;;;;;;;5.40;2.40;;;17.30;99.90;;;;;;7377948;19;20368;-45
2022/09/13 03:43:18;;;;;;;3.03;2.67;;;17.30;99.90;;;;;;7378568;19;20375;-47
2022/09/13 03:45:52;;;;;;;2.17;1.90;;;17.30;99.90;;;;;;7380870;19;20387;-47
2022/09/13 03:48:23;;;;;;;2.20;2.00;;;17.30;99.90;;;;;;7379231;19;20368;-45
2022/09/13 03:50:53;;;;;;;4.00;2.00;;;17.20;99.90;;;;;;7380197;19;20376;-45
2022/09/13 03:53:29;;;;;;;3.03;2.20;;;17.00;99.90;;;;;;7377622;19;20369;-45
2022/09/13 03:55:59;;;;;;;2.10;1.80;;;16.80;99.90;;;;;;7376133;19;20960;-45
2022/09/13 03:58:28;;;;;;;2.03;1.83;;;16.70;99.90;;;;;;7369009;19;20869;-45
2022/09/13 04:00:58;;;;;;;5.20;1.97;;;16.90;99.90;;;;;;7373602;19;20428;-47
2022/09/13 04:03:27;;;;;;;2.37;1.97;;;16.90;99.90;;;;;;7372981;19;20384;-45
2022/09/13 04:05:59;;;;;;;2.07;1.70;;;16.90;99.90;;;;;;7372935;19;20364;-46
2022/09/13 04:08:31;;;;;;;2.63;2.40;;;16.90;99.90;;;;;;7372415;19;20403;-47
2022/09/13 04:11:01;;;;;;;2.50;2.30;;;16.90;99.90;;;;;;7373840;19;20405;-44
2022/09/13 04:13:31;;;;;;;3.40;2.40;;;16.70;99.90;;;;;;7374740;19;20364;-47
2022/09/13 04:16:03;;;;;;;3.27;2.47;;;16.40;99.90;;;;;;7371671;19;20379;-45
2022/09/13 04:18:33;;;;;;;2.77;2.23;;;16.20;99.90;;;;;;7372776;19;20445;-45
2022/09/13 04:21:04;;;;;;;3.20;2.33;;;16.20;99.90;;;;;;7375241;19;20918;-44
2022/09/13 04:23:38;;;;;;;8.83;2.33;;;16.30;99.90;;;;;;7374459;19;20370;-47
2022/09/13 04:26:08;;;;;;;2.30;2.07;;;16.40;99.90;;;;;;7373885;19;20493;-45
2022/09/13 04:28:37;;;;;;;2.77;1.73;;;16.20;99.90;;;;;;7370439;19;20920;-45
2022/09/13 04:31:07;;;;;;;3.20;2.27;;;16.30;99.90;;;;;;7372656;19;20459;-47
2022/09/13 04:33:36;;;;;;;4.80;3.23;;;16.10;99.90;;;;;;7383183;19;20372;-47
2022/09/13 04:36:06;;;;;;;4.60;2.70;;;16.20;99.90;;;;;;7387345;19;20372;-45
2022/09/13 04:38:38;;;;;;;3.83;2.60;;;16.20;99.90;;;;;;7376693;19;20380;-45
2022/09/13 04:41:10;;;;;;;2.30;2.10;;;16.20;99.90;;;;;;7380526;19;20375;-45
2022/09/13 04:43:39;;;;;;;2.17;1.97;;;16.20;99.90;;;;;;7390919;19;20453;-47
2022/09/13 04:46:09;;;;;;;3.43;2.20;;;16.40;99.90;;;;;;7386973;19;20409;-46
2022/09/13 04:48:39;;;;;;;4.93;2.17;;;16.60;99.90;;;;;;7371027;19;20937;-45
2022/09/13 04:51:08;;;;;;;3.83;2.17;;;16.60;99.90;;;;;;7384365;19;20410;-45
2022/09/13 04:53:40;;;;;;;2.67;1.97;;;16.60;99.90;;;;;;7377601;19;20376;-45
2022/09/13 04:56:11;;;;;;;3.10;2.10;;;16.60;99.90;;;;;;7382986;19;20752;-45
2022/09/13 04:58:40;;;;;;;4.10;2.17;;;16.60;99.90;;;;;;7384363;19;20380;-45
2022/09/13 05:01:11;;;;;;;2.70;2.00;;;16.60;99.90;;;;;;7378817;19;20519;-47
2022/09/13 05:03:41;;;;;;;2.77;2.20;;;16.80;99.90;;;;;;7385161;19;20392;-45
2022/09/13 05:06:16;;;;;;;2.20;1.90;;;16.80;99.90;;;;;;7379358;19;20384;-47
2022/09/13 05:08:54;;;;;;;3.67;2.43;;;16.90;99.90;;;;;;7383352;19;20388;-45
2022/09/13 05:11:24;;;;;;;4.77;2.30;;;16.90;99.90;;;;;;7383665;19;20408;-45
2022/09/13 05:13:54;;;;;;;3.20;2.07;;;17.00;99.90;;;;;;7385609;19;20732;-46
2022/09/13 05:16:25;;;;;;;4.93;2.07;;;16.80;99.90;;;;;;7377464;19;20896;-47
2022/09/13 05:18:55;;;;;;;2.30;2.10;;;16.60;99.90;;;;;;7378093;19;20863;-45
2022/09/13 05:21:26;;;;;;;5.40;2.20;;;16.60;99.90;;;;;;7373895;19;20404;-46
2022/09/13 05:24:01;;;;;;;4.63;2.63;;;16.50;99.90;;;;;;7383069;19;20392;-46
2022/09/13 05:26:32;;;;;;;4.23;2.70;;;16.40;99.90;;;;;;7385279;19;20464;-46
2022/09/13 05:29:02;;;;;;;5.03;2.47;;;16.50;99.90;;;;;;7380228;19;20381;-46
2022/09/13 05:31:34;;;;;;;2.83;2.53;;;16.60;99.90;;;;;;7384875;19;20375;-46
2022/09/13 05:34:06;;;;;;;2.80;2.13;;;16.60;99.90;;;;;;7384823;19;20376;-46
2022/09/13 05:36:35;;;;;;;7.13;2.23;;;16.50;99.90;;;;;;7388006;19;20934;-46
2022/09/13 05:39:09;;;;;;;3.60;2.30;;;16.50;99.90;;;;;;7386443;19;20365;-45
2022/09/13 05:41:38;;;;;;;4.47;2.83;;;16.20;99.90;;;;;;7387720;19;21260;-46
2022/09/13 05:44:08;;;;;;;2.63;2.10;;;16.10;99.90;;;;;;7387556;19;20393;-46
2022/09/13 05:46:38;;;;;;;5.20;2.43;;;16.20;99.90;;;;;;7387729;19;20380;-45
2022/09/13 05:49:08;;;;;;;3.60;2.90;;;16.20;99.90;;;;;;7386108;19;20368;-45
2022/09/13 05:51:38;;;;;;;2.97;2.13;;;16.10;99.90;;;;;;7386712;19;20416;-46
2022/09/13 05:54:12;;;;;;;3.20;2.20;;;16.20;99.90;;;;;;7388638;19;20406;-46
2022/09/13 05:56:42;;;;;;;3.00;2.27;;;16.10;99.90;;;;;;7386196;19;20395;-46
2022/09/13 05:59:15;;;;;;;4.00;2.50;;;16.10;99.90;;;;;;7384429;19;20414;-46
2022/09/13 06:01:44;;;;;;;2.60;2.33;;;16.20;99.90;;;;;;7384745;19;20432;-45
2022/09/13 06:04:14;;;;;;;7.40;2.60;;;16.10;99.90;;;;;;7382772;19;20946;-45
2022/09/13 06:06:43;;;;;;;2.90;2.07;;;16.20;99.90;;;;;;7383665;19;20399;-46
2022/09/13 06:09:15;;;;;;;3.53;2.27;;;16.30;99.90;;;;;;7379793;19;20384;-46
2022/09/13 06:11:45;;;;;;;2.10;1.90;;;16.20;99.90;;;;;;7382652;19;20930;-46
2022/09/13 06:14:14;;;;;;;2.67;2.00;;;16.40;99.90;;;;;;7384419;19;20414;-46
2022/09/13 06:16:44;;;;;;;3.73;2.27;;;16.70;99.90;;;;;;7381694;19;20382;-46
2022/09/13 06:19:13;;;;;;;4.00;2.10;;;17.00;99.90;;;;;;7385343;19;20380;-46
2022/09/13 06:21:42;;;;;;;3.40;2.27;;;17.10;99.90;;;;;;7384392;19;20380;-45
2022/09/13 06:24:14;;;;;;;3.20;2.57;;;17.10;99.90;;;;;;7386381;19;20448;-46
2022/09/13 06:26:44;;;;;;;4.57;3.50;;;17.30;99.90;;;;;;7381679;19;20372;-46
2022/09/13 06:29:14;;;;;;;12.27;4.50;;;17.50;99.90;;;;;;7383382;19;20387;-46
2022/09/13 06:31:43;;;;;;;3.60;2.70;;;17.40;99.90;;;;;;7387481;19;20725;-47
2022/09/13 06:34:16;;;;;;;8.03;3.03;;;17.50;99.90;;;;;;7386460;19;21001;-46
2022/09/13 06:36:45;;;;;;;3.17;2.53;;;17.50;99.90;;;;;;7387149;19;20408;-46
2022/09/13 06:39:17;;;;;;;3.33;2.23;;;17.40;99.90;;;;;;7385163;19;20393;-46
2022/09/13 06:41:47;;;;;;;4.90;2.43;;;17.30;99.90;;;;;;7384877;19;20496;-46
2022/09/13 06:44:16;;;;;;;3.00;2.17;;;17.30;99.90;;;;;;7386229;19;20413;-47
2022/09/13 06:46:46;;;;;;;5.23;3.10;;;17.30;99.90;;;;;;7385008;19;20372;-48
2022/09/13 06:49:15;;;;;;;2.90;2.40;;;17.60;99.90;;;;;;7384844;19;20973;-46
2022/09/13 06:51:44;;;;;;;4.17;2.60;;;17.70;99.90;;;;;;7384674;19;20369;-46
2022/09/13 06:54:17;;;;;;;3.53;2.13;;;17.80;99.90;;;;;;7380584;19;20423;-46
2022/09/13 06:56:46;;;;;;;4.47;2.30;;;17.90;99.90;;;;;;7379046;19;20439;-46
2022/09/13 06:59:16;;;;;;;2.77;2.13;;;18.10;99.90;;;;;;7379424;19;20372;-47
2022/09/13 07:01:46;;;;;;;4.03;2.30;;;18.30;99.90;;;;;;7381408;19;20492;-47
2022/09/13 07:04:18;;;;;;;8.63;3.00;;;18.50;99.90;;;;;;7381515;19;20444;-47
2022/09/13 07:06:49;;;;;;;3.40;2.50;;;18.70;99.90;;;;;;7384162;19;21178;-47
2022/09/13 07:09:22;;;;;;;7.63;2.53;;;18.80;99.90;;;;;;7380494;19;20399;-47
2022/09/13 07:11:54;;;;;;;4.60;2.50;;;19.00;99.90;;;;;;7382661;19;20383;-47
2022/09/13 07:14:26;;;;;;;6.50;2.80;;;19.20;99.90;;;;;;7373026;19;20898;-47
2022/09/13 07:16:56;;;;;;;3.23;2.93;;;19.50;99.40;;;;;;7376184;19;20751;-47
2022/09/13 07:19:28;;;;;;;3.53;2.90;;;19.80;96.50;;;;;;7380826;19;20381;-47
2022/09/13 07:21:58;;;;;;;4.20;2.80;;;19.90;94.10;;;;;;7377233;19;20380;-47
2022/09/13 07:24:30;;;;;;;3.20;2.20;;;20.00;92.90;;;;;;7381705;19;20444;-47
2022/09/13 07:27:00;;;;;;;2.80;2.13;;;20.00;92.40;;;;;;7379754;19;20928;-47
2022/09/13 07:29:29;;;;;;;3.57;3.00;;;20.10;92.00;;;;;;7380716;19;20415;-47
2022/09/13 07:32:02;;;;;;;3.70;2.43;;;20.20;91.10;;;;;;7381419;19;20932;-47
2022/09/13 07:34:34;;;;;;;3.10;2.33;;;20.20;90.20;;;;;;7382728;19;20901;-47
2022/09/13 07:37:03;;;;;;;5.20;2.87;;;20.10;89.40;;;;;;7385852;19;20725;-47
2022/09/13 07:39:35;;;;;;;3.43;2.80;;;20.00;89.40;;;;;;7382372;19;20409;-47
2022/09/13 07:42:05;;;;;;;2.60;2.23;;;20.10;90.30;;;;;;7382712;19;20384;-47
2022/09/13 07:44:34;;;;;;;2.60;2.33;;;20.40;88.90;;;;;;7384922;19;20424;-47
2022/09/13 07:47:04;;;;;;;5.73;2.87;;;20.60;87.40;;;;;;7383302;19;20423;-47
2022/09/13 07:49:33;;;;;;;3.33;2.57;;;20.80;86.00;;;;;;7384492;19;20401;-47
2022/09/13 07:52:03;;;;;;;5.53;2.97;;;20.90;87.30;;;;;;7383857;19;20463;-47
2022/09/13 07:54:36;;;;;;;5.57;2.57;;;21.00;85.70;;;;;;7384124;19;20372;-47
2022/09/13 07:57:08;;;;;;;6.43;2.60;;;21.20;84.30;;;;;;7385180;19;20380;-47
2022/09/13 07:59:38;;;;;;;3.20;2.87;;;21.40;80.90;;;;;;7381360;19;20418;-47
2022/09/13 08:02:07;;;;;;;4.60;2.70;;;21.50;78.90;;;;;;7377053;19;20958;-47
2022/09/13 08:04:37;;;;;;;4.30;3.20;;;21.60;78.00;;;;;;7382407;19;20827;-47
2022/09/13 08:07:06;;;;;;;3.53;2.83;;;21.70;77.10;;;;;;7388841;19;20364;-47
2022/09/13 08:09:39;;;;;;;4.23;2.73;;;21.70;76.30;;;;;;7387304;19;20406;-47
2022/09/13 08:12:09;;;;;;;3.43;3.07;;;22.00;75.50;;;;;;7390632;19;20409;-47
2022/09/13 08:14:38;;;;;;;5.93;3.17;;;22.20;73.90;;;;;;7386750;19;20395;-47
2022/09/13 08:17:09;;;;;;;4.20;2.77;;;22.50;72.10;;;;;;7387416;19;20914;-48
2022/09/13 08:19:41;;;;;;;5.40;2.87;;;22.70;69.90;;;;;;7385525;19;20384;-48
2022/09/13 08:22:10;;;;;;;6.50;2.70;;;22.90;69.10;;;;;;7387480;19;20377;-47
2022/09/13 08:24:42;;;;;;;4.23;2.50;;;23.00;67.80;;;;;;7387189;19;20380;-47
2022/09/13 08:27:12;;;;;;;6.60;3.13;;;23.30;67.50;;;;;;7389181;19;20445;-47
2022/09/13 08:29:44;;;;;;;8.03;3.00;;;23.40;66.40;;;;;;7386949;19;20400;-48
2022/09/13 08:32:13;;;;;;;5.77;2.70;;;23.60;65.70;;;;;;7387636;19;20372;-47
2022/09/13 08:34:43;;;;;;;3.73;2.20;;;23.60;66.60;;;;;;7388575;19;20380;-48
2022/09/13 08:37:12;;;;;;;8.27;2.90;;;23.80;65.70;;;;;;7387861;19;20388;-47
2022/09/13 08:39:44;;;;;;;8.67;3.43;;;24.20;64.90;;;;;;7386813;19;20376;-48
2022/09/13 08:42:25;;;;;;;4.43;2.53;;;24.50;64.10;;;;;;7388042;19;20380;-48
2022/09/13 08:44:57;;;;;;;8.40;3.70;;;24.90;62.80;;;;;;7388590;19;20388;-48
2022/09/13 08:47:37;;;;;;;5.10;2.70;;;25.40;61.50;;;;;;7389494;19;20906;-48
2022/09/13 08:50:17;;;;;;;12.47;2.40;;;26.00;59.70;;;;;;7389481;19;20380;-48
2022/09/13 08:52:56;;;;;;;5.13;2.40;;;26.60;57.80;;;;;;7389958;19;20397;-48
2022/09/13 08:55:41;;;;;;;4.20;2.30;;;26.80;56.00;;;;;;7390072;19;20379;-48
2022/09/13 08:58:28;;;;;;;4.60;2.63;;;27.10;55.10;;;;;;7386099;19;20420;-48
2022/09/13 09:01:05;;;;;;;6.03;2.80;;;27.10;55.60;;;;;;7386622;19;20483;-48
2022/09/13 09:03:45;;;;;;;5.47;2.37;;;27.20;54.60;;;;;;7386074;19;20475;-48
2022/09/13 09:06:17;;;;;;;7.47;2.50;;;27.30;54.30;;;;;;7385705;19;20384;-48
2022/09/13 09:08:51;;;;;;;7.83;3.03;;;27.30;54.30;;;;;;7386799;19;20380;-48
2022/09/13 09:11:32;;;;;;;3.20;2.13;;;27.40;54.70;;;;;;7385870;19;20448;-48
2022/09/13 09:14:09;;;;;;;7.87;3.03;;;27.60;53.70;;;;;;7385541;19;20375;-48
2022/09/13 09:16:47;;;;;;;7.23;2.33;;;28.40;53.80;;;;;;7385470;19;20360;-48
2022/09/13 09:19:23;;;;;;;5.23;2.30;;;29.20;51.00;;;;;;7384851;19;20391;-48
2022/09/13 09:21:53;;;;;;;4.67;2.70;;;29.20;50.60;;;;;;7386392;19;21022;-48
2022/09/13 09:24:25;;;;;;;3.20;2.30;;;29.10;50.50;;;;;;7386070;19;21013;-48
2022/09/13 09:27:01;;;;;;;3.77;2.20;;;29.00;50.40;;;;;;7386178;19;20769;-48
2022/09/13 09:29:33;;;;;;;2.70;2.10;;;28.80;51.10;;;;;;7385343;19;20376;-49
2022/09/13 09:32:17;;;;;;;9.53;2.20;;;29.00;51.50;;;;;;7385924;19;20364;-48
2022/09/13 09:34:56;;;;;;;5.30;3.33;;;29.60;50.40;;;;;;7388457;19;20380;-48
2022/09/13 09:37:29;;;;;;;3.30;2.60;;;30.20;48.90;;;;;;7385447;19;20415;-48
2022/09/13 09:40:03;;;;;;;3.07;2.20;;;30.50;48.70;;;;;;7386496;19;20376;-49
2022/09/13 09:42:42;;;;;;;2.73;2.17;;;31.30;46.80;;;;;;7388160;19;21016;-48
2022/09/13 09:45:27;;;;;;;2.90;2.60;;;31.40;46.10;;;;;;7387363;19;20380;-48
2022/09/13 09:48:00;;;;;;;4.47;2.67;;;31.30;46.70;;;;;;7389300;19;20939;-48
2022/09/13 09:50:34;;;;;;;3.43;3.13;;;31.80;45.90;;;;;;7387315;19;20375;-48
2022/09/13 09:53:08;;;;;;;3.73;2.30;;;32.40;45.00;;;;;;7387895;19;20405;-48
2022/09/13 09:55:47;;;;;;;3.87;2.20;;;32.70;43.90;;;;;;7385465;19;20376;-48
2022/09/13 09:58:19;;;;;;;2.60;2.00;;;32.90;43.00;;;;;;7387499;19;20379;-48
2022/09/13 10:00:57;;;;;;;3.60;2.47;;;33.10;42.80;;;;;;7383974;19;20881;-48
2022/09/13 10:03:29;;;;;;;2.77;2.20;;;33.30;42.40;;;;;;7383781;19;20376;-48
2022/09/13 10:06:08;;;;;;;3.73;2.23;;;33.70;41.90;;;;;;7383964;19;20973;-48
2022/09/13 10:08:42;;;;;;;4.33;2.17;;;34.00;41.00;;;;;;7381890;19;20380;-48
2022/09/13 10:11:15;;;;;;;3.80;2.00;;;34.00;41.00;;;;;;7385725;19;20949;-48
2022/09/13 10:14:04;;;;;;;6.80;2.00;;;33.90;40.80;;;;;;7386257;19;20372;-48
2022/09/13 10:16:36;;;;;;;3.63;2.00;;;34.20;40.50;;;;;;7385811;19;20368;-48
2022/09/13 10:19:27;;;;;;;3.53;1.70;;;34.40;40.30;;;;;;7385734;19;20783;-49
2022/09/13 10:22:04;;;;;;;3.03;1.70;;;35.30;38.50;;;;;;7383772;19;20414;-49
2022/09/13 10:24:34;;;;;;;2.13;1.50;;;35.60;38.10;;;;;;7385253;19;20383;-49
2022/09/13 10:27:05;;;;;;;3.10;1.70;;;36.20;36.90;;;;;;7383466;19;20451;-49
2022/09/13 10:29:38;;;;;;;2.20;1.77;;;37.10;35.70;;;;;;7384325;19;21084;-49
2022/09/13 10:32:11;;;;;;;2.83;1.83;;;37.90;34.00;;;;;;7378604;19;20775;-49
2022/09/13 10:34:46;;;;;;;4.10;3.40;;;38.40;32.70;;;;;;7383954;19;20930;-50
2022/09/13 10:37:21;;;;;;;5.20;2.10;;;39.10;32.90;;;;;;7382914;19;20384;-49
2022/09/13 10:40:03;;;;;;;2.67;1.70;;;39.70;31.00;;;;;;7385573;19;20443;-50
2022/09/13 10:42:34;;;;;;;2.80;1.80;;;40.00;31.30;;;;;;7382373;19;20375;-50
2022/09/13 10:45:08;;;;;;;2.00;1.80;;;39.70;30.80;;;;;;7383333;19;20393;-50
2022/09/13 10:47:46;;;;;;;3.10;1.80;;;39.60;31.50;;;;;;7386014;19;20383;-50
2022/09/13 10:50:23;;;;;;;4.23;2.17;;;39.30;31.20;;;;;;7386978;19;20376;-50
2022/09/13 10:52:53;;;;;;;1.70;1.50;;;38.80;32.10;;;;;;7383553;19;20363;-50
2022/09/13 10:55:32;;;;;;;4.20;1.67;;;38.80;32.10;;;;;;7382384;19;20411;-50
2022/09/13 10:58:20;;;;;;;4.60;1.77;;;39.00;31.60;;;;;;7385463;19;21190;-50
2022/09/13 11:01:32;;;;;;;2.83;1.53;;;38.60;31.90;;;;;;7380089;19;20449;-50
2022/09/13 11:04:38;;;;;;;2.47;1.70;;;38.90;31.60;;;;;;7380104;19;20383;-50
2022/09/13 11:07:21;;;;;;;2.90;2.07;;;38.60;32.00;;;;;;7383840;19;20404;-50
2022/09/13 11:09:59;;;;;;;2.97;1.87;;;38.40;32.00;;;;;;7384398;19;20404;-50
2022/09/13 11:12:39;;;;;;;5.00;1.77;;;38.10;32.70;;;;;;7384323;19;20383;-50
2022/09/13 11:15:19;;;;;;;2.53;1.60;;;37.80;32.00;;;;;;7385142;19;20368;-50
2022/09/13 11:18:14;;;;;;;3.17;1.33;;;37.10;33.30;;;;;;7379954;19;20368;-50
2022/09/13 11:20:54;;;;;;;5.60;2.40;;;36.10;33.60;;;;;;7379743;19;20387;-49
2022/09/13 11:23:39;;;;;;;6.23;5.73;;;35.40;35.60;;;;;;7378816;19;20382;-49
2022/09/13 11:26:29;;;;;;;4.00;3.60;;;34.90;35.90;;;;;;7396996;19;20415;-49
2022/09/13 11:29:06;;;;;;;1.90;1.50;;;34.30;36.60;;;;;;7385317;19;20409;-49
2022/09/13 11:31:44;;;;;;;2.27;1.40;;;34.40;36.10;;;;;;7383871;19;20880;-49
2022/09/13 11:34:32;;;;;;;2.33;1.70;;;35.10;35.20;;;;;;7384135;19;20700;-49
2022/09/13 11:37:21;;;;;;;1.73;1.13;;;36.20;34.20;;;;;;7383663;19;20384;-49
2022/09/13 11:40:00;;;;;;;1.77;1.50;;;36.90;33.20;;;;;;7379010;19;20388;-49
2022/09/13 11:42:43;;;;;;;2.67;1.50;;;36.80;33.60;;;;;;7386248;19;20385;-49
2022/09/13 11:45:22;;;;;;;2.20;1.80;;;36.60;32.90;;;;;;7384562;19;21053;-49
2022/09/13 11:48:11;;;;;;;2.60;1.20;;;36.20;32.70;;;;;;7383523;19;20811;-49
2022/09/13 11:50:51;;;;;;;2.40;1.47;;;35.50;33.00;;;;;;7386107;19;20773;-50
2022/09/13 11:53:44;;;;;;;2.10;1.30;;;35.30;33.80;;;;;;7384619;19;20713;-50
2022/09/13 11:56:21;;;;;;;1.80;1.50;;;35.60;32.50;;;;;;7389709;19;20461;-49
2022/09/13 11:58:54;;;;;;;1.33;1.13;;;36.10;32.60;;;;;;7390830;19;20367;-50
2022/09/13 12:01:29;;;;;;;3.40;1.33;;;36.20;31.30;;;;;;7395691;19;20490;-50
2022/09/13 12:04:02;;;;;;;2.00;1.50;;;36.40;31.70;;;;;;7396018;19;20367;-50
2022/09/13 12:06:40;;;;;;;2.23;1.23;;;36.60;33.00;;;;;;7392202;19;20375;-50
2022/09/13 12:09:20;;;;;;;2.27;1.20;;;36.60;31.80;;;;;;7388492;19;20906;-50
2022/09/13 12:11:54;;;;;;;1.73;1.20;;;36.60;31.60;;;;;;7391833;19;20384;-50
2022/09/13 12:14:32;;;;;;;1.77;1.20;;;36.30;31.30;;;;;;7387859;19;20364;-50
2022/09/13 12:17:08;;;;;;;3.40;1.50;;;36.40;31.60;;;;;;7390445;19;20372;-49
2022/09/13 12:19:45;;;;;;;2.30;1.33;;;36.40;32.40;;;;;;7394013;19;20420;-49
2022/09/13 12:22:15;;;;;;;2.70;1.40;;;36.30;32.50;;;;;;7391270;19;20372;-49
2022/09/13 12:24:53;;;;;;;2.27;1.20;;;36.30;32.40;;;;;;7386560;19;20420;-49
2022/09/13 12:27:30;;;;;;;2.70;1.10;;;36.30;31.70;;;;;;7393387;19;20992;-49
2022/09/13 12:30:07;;;;;;;2.57;1.53;;;36.60;31.00;;;;;;7379570;19;20375;-49
2022/09/13 12:32:40;;;;;;;1.60;1.07;;;37.40;30.70;;;;;;7384193;19;20367;-49
2022/09/13 12:35:15;;;;;;;1.50;0.90;;;37.30;30.00;;;;;;7391607;19;20411;-49
2022/09/13 12:38:01;;;;;;;1.70;1.10;;;36.90;29.80;;;;;;7387729;19;20374;-49
2022/09/13 12:40:45;;;;;;;2.80;1.37;;;36.50;29.80;;;;;;7391499;19;20380;-49
2022/09/13 12:43:34;;;;;;;3.37;1.00;;;36.60;31.10;;;;;;7386749;19;20399;-49
2022/09/13 12:46:22;;;;;;;1.90;1.30;;;36.30;31.30;;;;;;7384757;19;20387;-47
2022/09/13 12:49:20;;;;;;;1.80;1.47;;;36.50;31.00;;;;;;7388503;19;20483;-47
2022/09/13 12:52:14;;;;;;;1.40;1.10;;;36.60;31.20;;;;;;7394619;19;20457;-49
2022/09/13 12:55:14;;;;;;;1.33;1.20;;;36.60;30.30;;;;;;7396335;19;20383;-49
2022/09/13 12:57:52;;;;;;;1.60;1.00;;;36.90;30.10;;;;;;7398236;19;20415;-47
2022/09/13 13:00:23;;;;;;;1.80;1.20;;;37.30;29.50;;;;;;7392757;19;20384;-49
2022/09/13 13:03:04;;;;;;;3.37;1.40;;;37.90;28.50;;;;;;7394783;19;20367;-49
2022/09/13 13:05:36;;;;;;;1.60;1.20;;;38.00;28.40;;;;;;7395231;19;20467;-47
2022/09/13 13:08:19;;;;;;;1.40;1.13;;;37.90;29.70;;;;;;7398890;19;20396;-47
2022/09/13 13:11:02;;;;;;;1.90;1.10;;;38.00;29.20;;;;;;7393780;19;20372;-47
2022/09/13 13:13:38;;;;;;;1.20;0.80;;;38.20;28.40;;;;;;7393959;19;20368;-47
2022/09/13 13:16:26;;;;;;;1.73;0.90;;;38.20;28.90;;;;;;7397217;19;20468;-47
2022/09/13 13:18:59;;;;;;;1.80;1.30;;;38.30;27.60;;;;;;7361516;19;20974;-46
2022/09/13 13:21:32;;;;;;;1.13;0.77;;;38.20;27.80;;;;;;7394304;19;21803;-47
2022/09/13 13:24:37;;;;;;;1.73;0.90;;;38.20;27.00;;;;;;7391954;19;20380;-47
2022/09/13 13:27:36;;;;;;;1.90;0.90;;;38.10;26.50;;;;;;7390529;19;20387;-47
2022/09/13 13:30:39;;;;;;;3.43;1.20;;;38.40;28.40;;;;;;7387385;19;20479;-47